Time;durP1;ratioP1;P1;durP2;ratioP2;P2;SDS_P1;SDS_P2;PMS_P1;PMS_P2;Temp;Humidity;BMP_temperature;BMP_pressure;BME280_temperature;BME280_humidity;BME280_pressure;Samples;Min_cycle;Max_cycle;Signal;HPM_P1;HPM_P2
2023/06/23 00:00:14;;;;;;;9.32;7.93;;;;;;;22.37;100.00;100702.38;4988538;28;20049;-73
2023/06/23 00:02:40;;;;;;;12.27;8.35;;;;;;;21.80;100.00;100619.31;4993513;28;20485;-73
2023/06/23 00:05:09;;;;;;;13.43;9.13;;;;;;;21.66;100.00;100593.19;4984076;28;20057;-73
2023/06/23 00:07:36;;;;;;;10.32;7.75;;;;;;;21.59;100.00;100605.94;4980495;28;20043;-73
2023/06/23 00:10:05;;;;;;;12.05;8.05;;;;;;;22.04;100.00;100700.22;4981071;28;20050;-73
2023/06/23 00:12:32;;;;;;;10.52;7.60;;;;;;;22.31;100.00;100719.53;4987420;28;20417;-73
2023/06/23 00:14:58;;;;;;;13.18;7.97;;;;;;;22.29;100.00;100732.13;4985140;28;20046;-75
2023/06/23 00:17:25;;;;;;;11.43;7.95;;;;;;;22.18;100.00;100713.84;4986093;28;20038;-74
2023/06/23 00:19:51;;;;;;;14.32;9.13;;;;;;;21.53;100.00;100594.66;4979206;28;20471;-74
2023/06/23 00:22:16;;;;;;;15.18;9.30;;;;;;;22.25;100.00;100722.50;4986339;28;20104;-74
2023/06/23 00:24:43;;;;;;;12.15;8.52;;;;;;;21.78;100.00;100626.53;4986252;28;20486;-74
2023/06/23 00:27:10;;;;;;;9.90;7.40;;;;;;;22.27;100.00;100689.41;4985129;28;20034;-74
2023/06/23 00:29:35;;;;;;;12.23;9.68;;;;;;;22.34;100.00;100690.88;4982026;28;20438;-74
2023/06/23 00:32:02;;;;;;;12.57;9.02;;;;;;;21.98;100.00;100625.63;4986043;28;20113;-73
2023/06/23 00:34:27;;;;;;;16.75;9.75;;;;;;;22.42;100.00;100709.25;4986139;28;20078;-73
2023/06/23 00:36:53;;;;;;;14.05;9.23;;;;;;;21.32;100.00;100602.59;4984806;28;20125;-72
2023/06/23 00:39:18;;;;;;;12.95;8.98;;;;;;;21.15;100.00;100595.28;4986920;28;20052;-73
2023/06/23 00:41:44;;;;;;;9.85;7.05;;;;;;;21.66;100.00;100714.25;4986209;28;20042;-73
2023/06/23 00:44:10;;;;;;;14.68;9.02;;;;;;;21.62;100.00;100722.44;4981525;28;20050;-74
2023/06/23 00:46:36;;;;;;;12.10;8.38;;;;;;;20.91;100.00;100591.81;4979238;28;20039;-75
2023/06/23 00:49:02;;;;;;;12.07;8.27;;;;;;;21.20;100.00;100638.66;4982821;28;20046;-73
2023/06/23 00:51:30;;;;;;;10.23;7.47;;;;;;;21.07;100.00;100611.59;4985379;28;20113;-74
2023/06/23 00:53:58;;;;;;;13.65;9.45;;;;;;;20.61;100.00;100559.22;4983857;28;20129;-74
2023/06/23 00:56:24;;;;;;;14.90;10.48;;;;;;;21.03;100.00;100626.00;4982952;28;20058;-75
2023/06/23 00:58:50;;;;;;;13.55;10.50;;;;;;;21.41;100.00;100703.69;4986591;28;20780;-74
2023/06/23 01:01:17;;;;;;;13.18;8.40;;;;;;;20.90;100.00;100614.06;4989412;28;20049;-74
2023/06/23 01:03:43;;;;;;;13.15;9.05;;;;;;;19.67;100.00;100439.31;4972993;28;20141;-73
2023/06/23 01:06:37;;;;;;;16.25;10.55;;;;;;;20.72;100.00;100591.66;4989194;28;20077;-74
2023/06/23 01:09:31;;;;;;;14.63;9.07;;;;;;;21.50;100.00;100721.16;4986089;28;20078;-73
2023/06/23 01:12:12;;;;;;;14.13;9.85;;;;;;;21.35;100.00;100721.72;4983032;28;20095;-73
2023/06/23 01:15:00;;;;;;;10.75;8.25;;;;;;;21.24;100.00;100723.00;4987794;28;20085;-73
2023/06/23 01:17:35;;;;;;;15.07;9.35;;;;;;;20.62;100.00;100632.94;4977010;28;20046;-74
2023/06/23 01:20:21;;;;;;;12.63;8.55;;;;;;;20.73;100.00;100676.06;4976636;28;20677;-73
2023/06/23 01:23:21;;;;;;;13.55;9.82;;;;;;;20.84;100.00;100700.53;4979699;28;20046;-73
2023/06/23 01:26:09;;;;;;;13.73;10.13;;;;;;;20.91;100.00;100729.63;5018227;28;20043;-74
2023/06/23 01:28:49;;;;;;;11.10;9.10;;;;;;;20.08;100.00;100600.25;4976204;28;20043;-74
2023/06/23 01:31:22;;;;;;;14.82;8.93;;;;;;;20.46;100.00;100672.59;4989152;28;20038;-73
2023/06/23 01:33:56;;;;;;;12.93;9.35;;;;;;;19.94;100.00;100603.41;4989466;28;20724;-72
2023/06/23 01:36:32;;;;;;;12.82;9.40;;;;;;;20.49;100.00;100715.16;4990117;28;20522;-73
2023/06/23 01:39:03;;;;;;;15.15;11.00;;;;;;;20.29;100.00;100675.00;4985831;28;20038;-73
2023/06/23 01:41:33;;;;;;;14.40;9.75;;;;;;;19.85;100.00;100605.53;4985142;28;20061;-73
2023/06/23 01:44:04;;;;;;;17.27;10.35;;;;;;;19.75;100.00;100603.19;4988967;28;20042;-73
2023/06/23 01:46:35;;;;;;;11.77;8.32;;;;;;;20.44;100.00;100723.31;4987216;28;20073;-73
2023/06/23 01:49:10;;;;;;;14.52;9.95;;;;;;;20.24;100.00;100715.16;4988653;28;20134;-74
2023/06/23 01:51:38;;;;;;;12.57;8.32;;;;;;;20.33;100.00;100719.31;4997996;28;20057;-74
2023/06/23 01:54:06;;;;;;;14.63;9.95;;;;;;;20.15;100.00;100713.66;4986550;28;20040;-74
2023/06/23 01:56:32;;;;;;;14.55;10.73;;;;;;;19.57;100.00;100591.38;4979019;28;20107;-74
2023/06/23 01:59:02;;;;;;;13.25;9.40;;;;;;;19.90;100.00;100631.09;4996619;28;20058;-74
2023/06/23 02:01:31;;;;;;;13.27;9.02;;;;;;;20.25;100.00;100714.22;4988286;28;20058;-74
2023/06/23 02:03:59;;;;;;;13.10;8.70;;;;;;;20.28;100.00;100740.78;4988694;28;20157;-74
2023/06/23 02:06:27;;;;;;;14.85;10.07;;;;;;;20.30;100.00;100746.94;4989545;28;20034;-73
2023/06/23 02:08:54;;;;;;;13.20;8.10;;;;;;;20.22;100.00;100759.63;4977732;28;20196;-73
2023/06/23 02:11:22;;;;;;;16.02;9.00;;;;;;;20.22;100.00;100723.19;4988789;28;20060;-74
2023/06/23 02:13:49;;;;;;;19.08;10.20;;;;;;;20.58;100.00;100749.53;4985977;28;20046;-74
2023/06/23 02:16:15;;;;;;;13.18;8.82;;;;;;;20.50;100.00;100748.00;4982551;28;20057;-74
2023/06/23 02:18:42;;;;;;;13.73;8.77;;;;;;;19.60;100.00;100636.50;4987144;28;20049;-73
2023/06/23 02:21:10;;;;;;;11.95;8.15;;;;;;;20.21;100.00;100726.78;4987237;28;21487;-73
2023/06/23 02:23:38;;;;;;;14.00;8.73;;;;;;;20.23;100.00;100751.59;4986432;28;20042;-74
2023/06/23 02:26:04;;;;;;;14.30;9.80;;;;;;;20.35;100.00;100734.31;4987778;28;20097;-73
2023/06/23 02:28:30;;;;;;;12.07;8.10;;;;;;;19.90;100.00;100639.09;4988599;28;20460;-74
2023/06/23 02:30:58;;;;;;;12.15;8.85;;;;;;;19.93;100.00;100616.81;4988786;28;20997;-74
2023/06/23 02:33:23;;;;;;;12.50;8.73;;;;;;;19.95;100.00;100634.47;4988602;28;20092;-74
2023/06/23 02:35:53;;;;;;;12.65;8.45;;;;;;;20.67;100.00;100750.97;4985206;28;20727;-72
2023/06/23 02:38:24;;;;;;;16.25;9.90;;;;;;;20.01;100.00;100646.69;4988011;28;20046;-74
2023/06/23 02:40:52;;;;;;;12.00;9.48;;;;;;;20.24;100.00;100715.16;4987369;28;20521;-74
2023/06/23 02:43:23;;;;;;;19.35;10.95;;;;;;;20.56;100.00;100743.38;4988171;28;20065;-73
2023/06/23 02:45:53;;;;;;;12.48;8.80;;;;;;;20.54;100.00;100747.84;4984045;28;20053;-72
2023/06/23 02:48:22;;;;;;;17.20;8.18;;;;;;;19.75;100.00;100636.94;4986640;28;20044;-71
2023/06/23 02:50:49;;;;;;;11.50;9.68;;;;;;;20.11;100.00;100713.84;4982381;28;20046;-73
2023/06/23 02:53:25;;;;;;;12.60;7.50;;;;;;;20.12;100.00;100726.25;4987177;28;20066;-74
2023/06/23 02:56:01;;;;;;;14.38;8.88;;;;;;;20.05;100.00;100722.06;4982177;28;20046;-74
2023/06/23 02:58:28;;;;;;;10.77;8.13;;;;;;;20.02;100.00;100710.56;4987945;28;20065;-73
2023/06/23 03:00:57;;;;;;;12.55;8.93;;;;;;;19.52;100.00;100638.56;4986118;28;20046;-73
2023/06/23 03:03:22;;;;;;;13.82;8.68;;;;;;;19.46;100.00;100632.59;4985792;28;20129;-73
2023/06/23 03:05:49;;;;;;;16.65;8.48;;;;;;;19.52;100.00;100649.19;4987556;28;20231;-73
2023/06/23 03:08:15;;;;;;;10.27;8.57;;;;;;;19.51;100.00;100650.13;4985965;28;20418;-73
2023/06/23 03:10:41;;;;;;;12.80;8.60;;;;;;;19.90;100.00;100734.06;4981114;28;20046;-73
2023/06/23 03:13:07;;;;;;;14.00;8.25;;;;;;;19.41;100.00;100640.72;4987404;28;20070;-72
2023/06/23 03:15:36;;;;;;;12.15;9.00;;;;;;;19.86;100.00;100733.31;4987252;28;20040;-72
2023/06/23 03:18:10;;;;;;;24.45;9.02;;;;;;;19.82;100.00;100740.53;4984960;28;20129;-71
2023/06/23 03:20:46;;;;;;;15.68;8.93;;;;;;;19.75;100.00;100716.84;4984573;28;20053;-73
2023/06/23 03:23:14;;;;;;;13.45;8.38;;;;;;;19.31;100.00;100637.47;4984673;28;20058;-72
2023/06/23 03:25:46;;;;;;;14.07;9.07;;;;;;;19.36;100.00;100627.56;4987512;28;20054;-73
2023/06/23 03:28:17;;;;;;;8.93;7.30;;;;;;;19.56;100.00;100658.84;4987771;28;20486;-73
2023/06/23 03:30:47;;;;;;;16.13;9.10;;;;;;;20.07;100.00;100714.88;4985609;28;20371;-74
2023/06/23 03:33:23;;;;;;;12.52;9.15;;;;;;;19.94;100.00;100693.97;4980703;28;20061;-74
2023/06/23 03:35:50;;;;;;;13.05;8.65;;;;;;;20.11;100.00;100700.50;4985147;28;20072;-74
2023/06/23 03:38:21;;;;;;;13.18;8.35;;;;;;;20.25;100.00;100735.53;4986960;28;20533;-73
2023/06/23 03:41:04;;;;;;;14.85;6.78;;;;;;;20.27;100.00;100727.50;4986603;28;20034;-74
2023/06/23 03:43:41;;;;;;;14.50;10.87;;;;;;;19.79;100.00;100614.63;4982848;28;20073;-74
2023/06/23 03:46:35;;;;;;;11.27;8.40;;;;;;;19.21;100.00;100518.97;4976122;28;20049;-73
2023/06/23 03:49:04;;;;;;;16.65;7.45;;;;;;;20.33;100.00;100700.63;4980436;28;20038;-73
2023/06/23 03:51:32;;;;;;;12.65;8.02;;;;;;;19.92;100.00;100641.69;4987035;28;20034;-73
2023/06/23 03:54:00;;;;;;;12.48;8.30;;;;;;;20.24;100.00;100683.19;4986787;28;20050;-73
2023/06/23 03:56:28;;;;;;;9.23;6.75;;;;;;;20.13;100.00;100661.38;4986430;28;20050;-72
2023/06/23 03:58:55;;;;;;;17.20;9.48;;;;;;;20.54;100.00;100715.00;4986540;28;20562;-74
2023/06/23 04:01:22;;;;;;;17.08;8.02;;;;;;;19.97;100.00;100634.38;4983689;28;20058;-72
2023/06/23 04:03:50;;;;;;;10.45;8.57;;;;;;;20.43;100.00;100678.03;4986245;28;20136;-72
2023/06/23 04:06:18;;;;;;;12.25;8.27;;;;;;;19.91;100.00;100615.97;4985658;28;20036;-72
2023/06/23 04:08:46;;;;;;;10.40;8.10;;;;;;;19.64;100.00;100548.53;4978205;28;20047;-73
2023/06/23 04:11:14;;;;;;;14.40;8.85;;;;;;;20.64;100.00;100697.75;4979927;28;20050;-73
2023/06/23 04:13:41;;;;;;;12.95;6.90;;;;;;;19.99;100.00;100609.47;4984200;28;20047;-73
2023/06/23 04:16:10;;;;;;;10.20;6.57;;;;;;;20.42;100.00;100716.31;5004301;28;20053;-73
2023/06/23 04:18:37;;;;;;;13.25;7.90;;;;;;;19.83;100.00;100608.28;4985904;28;20034;-72
2023/06/23 04:21:06;;;;;;;12.77;8.18;;;;;;;20.52;100.00;100699.03;4984762;28;20046;-73
2023/06/23 04:23:34;;;;;;;14.38;9.02;;;;;;;20.20;100.00;100617.59;4985302;28;20085;-73
2023/06/23 04:26:01;;;;;;;13.55;8.63;;;;;;;20.64;100.00;100716.41;4983899;28;20516;-72
2023/06/23 04:28:28;;;;;;;13.52;9.27;;;;;;;20.37;100.00;100668.50;4983373;28;20483;-73
2023/06/23 04:30:55;;;;;;;11.77;8.43;;;;;;;20.19;100.00;100627.38;4985501;28;20050;-73
2023/06/23 04:33:21;;;;;;;10.90;8.32;;;;;;;20.81;100.00;100713.13;4985175;28;20057;-73
2023/06/23 04:35:49;;;;;;;12.85;8.90;;;;;;;20.01;100.00;100553.44;4984239;28;20038;-74
2023/06/23 04:38:21;;;;;;;17.17;9.50;;;;;;;20.96;100.00;100715.22;4986217;28;20487;-73
2023/06/23 04:40:53;;;;;;;9.63;7.65;;;;;;;20.91;100.00;100716.28;4985926;28;20129;-74
2023/06/23 04:43:28;;;;;;;13.27;8.35;;;;;;;20.83;100.00;100698.78;4979803;28;20045;-72
2023/06/23 04:45:59;;;;;;;11.57;7.20;;;;;;;21.08;100.00;100701.38;4985524;28;20073;-73
2023/06/23 04:48:30;;;;;;;11.45;7.88;;;;;;;21.25;100.00;100737.22;4981493;28;20029;-73
2023/06/23 04:50:58;;;;;;;17.15;8.60;;;;;;;20.86;100.00;100665.78;4985629;28;20053;-74
2023/06/23 04:53:45;;;;;;;10.25;7.20;;;;;;;21.33;100.00;100720.91;4977591;28;20046;-73
2023/06/23 04:56:16;;;;;;;10.68;8.93;;;;;;;21.41;100.00;100708.16;4978767;28;20185;-72
2023/06/23 04:58:48;;;;;;;9.35;7.28;;;;;;;21.15;100.00;100650.47;4985462;28;20046;-73
2023/06/23 05:01:15;;;;;;;10.43;8.55;;;;;;;21.17;100.00;100628.13;5011695;28;20121;-72
2023/06/23 05:03:43;;;;;;;12.80;9.02;;;;;;;21.87;100.00;100727.66;4985442;28;20350;-73
2023/06/23 05:06:12;;;;;;;24.63;7.40;;;;;;;21.79;100.00;100662.97;5019036;28;20418;-73
2023/06/23 05:08:40;;;;;;;11.10;8.18;;;;;;;22.17;100.00;100703.19;4983893;28;20042;-73
2023/06/23 05:11:09;;;;;;;13.85;9.13;;;;;;;21.94;100.00;100624.91;4981817;28;20047;-74
2023/06/23 05:13:36;;;;;;;18.70;7.35;;;;;;;22.61;100.00;100695.03;5016779;28;20038;-74
2023/06/23 05:16:03;;;;;;;10.82;6.38;;;;;;;23.20;100.00;100704.78;4980020;28;20081;-73
2023/06/23 05:18:30;;;;;;;11.77;7.53;;;;;;;22.90;100.00;100600.06;4985942;28;20062;-72
2023/06/23 05:20:58;;;;;;;13.68;8.35;;;;;;;23.60;100.00;100719.81;4985157;28;20134;-74
2023/06/23 05:23:27;;;;;;;9.88;7.65;;;;;;;23.52;100.00;100691.66;4984451;28;20050;-74
2023/06/23 05:25:58;;;;;;;13.57;7.05;;;;;;;23.80;100.00;100724.19;4982530;28;20042;-74
2023/06/23 05:28:26;;;;;;;11.30;7.03;;;;;;;23.89;100.00;100713.97;4983634;28;20054;-73
2023/06/23 05:30:55;;;;;;;15.23;7.03;;;;;;;24.08;100.00;100712.06;4981785;28;20132;-73
2023/06/23 05:33:23;;;;;;;8.70;6.93;;;;;;;24.25;100.00;100705.81;4976719;28;20035;-72
2023/06/23 05:35:52;;;;;;;15.57;7.05;;;;;;;24.84;100.00;100715.22;4978940;28;20100;-74
2023/06/23 05:38:19;;;;;;;10.90;5.70;;;;;;;24.57;100.00;100717.56;4977959;28;20046;-73
2023/06/23 05:40:45;;;;;;;9.38;5.60;;;;;;;24.72;100.00;100707.81;4985103;28;20038;-74
2023/06/23 05:43:11;;;;;;;7.35;5.65;;;;;;;25.17;100.00;100733.13;4979755;28;20414;-74
2023/06/23 05:45:36;;;;;;;10.98;6.85;;;;;;;24.44;100.00;100635.97;4984446;28;20033;-73
2023/06/23 05:48:27;;;;;;;10.32;6.22;;;;;;;24.58;100.00;100654.03;4985020;28;20395;-72
2023/06/23 05:50:55;;;;;;;7.18;5.07;;;;;;;25.79;100.00;100733.19;4977494;28;20787;-73
2023/06/23 05:53:24;;;;;;;12.32;6.32;;;;;;;25.65;100.00;100733.97;4966087;28;20054;-73
2023/06/23 05:55:57;;;;;;;16.45;7.28;;;;;;;25.97;100.00;100733.09;4972118;28;20722;-73
2023/06/23 05:58:27;;;;;;;8.55;5.93;;;;;;;26.24;100.00;100719.81;4982212;28;20137;-73
2023/06/23 06:00:56;;;;;;;16.33;6.38;;;;;;;26.23;100.00;100734.22;4987859;28;20578;-73
2023/06/23 06:03:28;;;;;;;9.35;6.97;;;;;;;27.08;100.00;100744.22;4989119;28;20042;-73
2023/06/23 06:05:56;;;;;;;11.02;6.18;;;;;;;27.12;100.00;100683.78;4990138;28;20054;-72
2023/06/23 06:08:23;;;;;;;7.63;5.65;;;;;;;27.26;100.00;100731.44;4981067;28;20551;-72
2023/06/23 06:10:52;;;;;;;9.45;5.50;;;;;;;27.58;100.00;100723.94;4985898;28;20054;-72
2023/06/23 06:13:19;;;;;;;8.93;5.70;;;;;;;27.81;100.00;100708.03;4987073;28;20039;-72
2023/06/23 06:15:46;;;;;;;12.57;6.35;;;;;;;27.06;100.00;100669.84;4980665;28;20038;-72
2023/06/23 06:18:15;;;;;;;20.15;7.07;;;;;;;26.78;100.00;100692.28;4989138;28;20040;-73
2023/06/23 06:20:44;;;;;;;10.02;6.32;;;;;;;27.50;100.00;100720.00;4984979;28;20433;-74
2023/06/23 06:23:11;;;;;;;9.55;6.05;;;;;;;27.21;100.00;100641.94;4987661;28;20125;-72
2023/06/23 06:25:38;;;;;;;8.38;5.68;;;;;;;28.11;100.00;100706.94;4980007;28;20065;-72
2023/06/23 06:28:10;;;;;;;8.10;6.30;;;;;;;27.94;100.00;100644.22;4987994;28;20057;-73
2023/06/23 06:30:39;;;;;;;10.52;6.38;;;;;;;28.52;100.00;100719.44;4986300;28;20638;-73
2023/06/23 06:33:06;;;;;;;17.38;7.90;;;;;;;28.20;100.00;100700.91;4988957;28;20042;-73
2023/06/23 06:35:34;;;;;;;10.73;7.20;;;;;;;28.09;100.00;100665.72;4985075;28;20046;-73
2023/06/23 06:38:01;;;;;;;7.78;4.85;;;;;;;27.85;100.00;100590.91;4988131;28;20077;-73
2023/06/23 06:40:28;;;;;;;6.18;5.32;;;;;;;28.21;100.00;100708.03;4985686;28;20487;-72
2023/06/23 06:42:53;;;;;;;8.90;6.70;;;;;;;27.30;100.00;100644.03;4985227;28;20066;-73
2023/06/23 06:45:19;;;;;;;13.05;6.05;;;;;;;28.38;100.00;100736.56;4988082;28;20070;-74
2023/06/23 06:47:48;;;;;;;11.68;6.53;;;;;;;28.16;100.00;100667.00;4987709;28;20046;-74
2023/06/23 06:50:15;;;;;;;11.10;6.93;;;;;;;27.65;100.00;100646.19;4984102;28;20089;-74
2023/06/23 06:52:43;;;;;;;17.08;7.03;;;;;;;27.55;100.00;100658.56;4985781;28;20038;-72
2023/06/23 06:55:18;;;;;;;7.50;5.25;;;;;;;27.92;100.00;100735.19;4985913;28;20812;-72
2023/06/23 06:57:47;;;;;;;10.32;6.63;;;;;;;28.07;100.00;100694.63;4980899;28;20054;-72
2023/06/23 07:00:16;;;;;;;13.68;5.53;;;;;;;28.46;100.00;100733.31;4981388;28;20042;-73
2023/06/23 07:02:43;;;;;;;11.77;6.22;;;;;;;28.95;100.00;100717.22;4983353;28;20096;-72
2023/06/23 07:05:09;;;;;;;6.60;5.93;;;;;;;29.17;100.00;100731.91;4985718;28;20173;-72
2023/06/23 07:07:36;;;;;;;11.30;6.07;;;;;;;28.12;100.00;100666.38;4986603;28;20160;-73
2023/06/23 07:10:03;;;;;;;11.65;6.90;;;;;;;28.06;100.00;100728.00;4981653;28;20690;-73
2023/06/23 07:12:30;;;;;;;13.15;6.00;;;;;;;29.01;100.00;100734.84;4987519;28;20038;-72
2023/06/23 07:14:56;;;;;;;10.07;6.75;;;;;;;28.45;100.00;100645.19;4976381;28;20177;-72
2023/06/23 07:17:22;;;;;;;6.82;5.18;;;;;;;28.50;100.00;100646.63;4983272;28;20796;-74
2023/06/23 07:19:47;;;;;;;8.98;6.38;;;;;;;29.19;100.00;100736.22;4986815;28;20069;-72
2023/06/23 07:22:13;;;;;;;8.18;6.43;;;;;;;28.73;100.00;100703.53;4985087;28;20425;-72
2023/06/23 07:24:38;;;;;;;6.75;5.57;;;;;;;29.01;100.00;100681.66;4986231;28;20053;-74
2023/06/23 07:27:05;;;;;;;9.05;5.88;;;;;;;29.12;100.00;100661.97;4979120;28;20037;-73
2023/06/23 07:29:30;;;;;;;11.75;8.40;;;;;;;27.99;100.00;100635.81;4987151;28;20121;-73
2023/06/23 07:31:57;;;;;;;10.13;6.50;;;;;;;28.40;100.00;100575.31;4983875;28;20076;-74
2023/06/23 07:34:22;;;;;;;18.08;7.45;;;;;;;28.92;100.00;100714.75;4986920;28;20046;-73
2023/06/23 07:36:48;;;;;;;10.70;7.43;;;;;;;28.75;100.00;100736.69;4982311;28;20057;-72
2023/06/23 07:39:14;;;;;;;8.07;7.22;;;;;;;28.82;100.00;100652.44;4987071;28;20112;-72
2023/06/23 07:41:40;;;;;;;10.65;6.57;;;;;;;29.59;100.00;100681.03;4986285;28;20054;-72
2023/06/23 07:44:05;;;;;;;12.60;6.82;;;;;;;29.14;100.00;100703.25;4980957;28;20042;-73
2023/06/23 07:46:32;;;;;;;10.48;6.18;;;;;;;29.06;100.00;100659.72;4983287;28;20041;-73
2023/06/23 07:48:58;;;;;;;7.38;6.32;;;;;;;29.43;100.00;100681.31;4984670;28;20050;-73
2023/06/23 07:51:23;;;;;;;10.50;6.07;;;;;;;29.18;100.00;100696.66;4985264;28;20037;-73
2023/06/23 07:53:49;;;;;;;9.32;6.85;;;;;;;29.32;100.00;100587.50;4985915;28;20050;-73
2023/06/23 07:56:14;;;;;;;7.93;5.97;;;;;;;30.06;100.00;100711.72;4984009;28;20069;-73
2023/06/23 07:58:40;;;;;;;8.20;6.32;;;;;;;30.07;100.00;100664.75;4983898;28;20062;-73
2023/06/23 08:01:06;;;;;;;11.50;5.43;;;;;;;29.57;100.00;100621.66;4981440;28;20046;-73
2023/06/23 08:03:32;;;;;;;16.25;6.57;;;;;;;29.99;98.62;100623.88;4986877;28;20088;-73
2023/06/23 08:05:57;;;;;;;11.18;5.45;;;;;;;30.40;93.71;100671.25;4986092;28;20117;-74
2023/06/23 08:08:23;;;;;;;7.07;4.95;;;;;;;30.59;98.30;100651.69;4983899;28;20042;-73
2023/06/23 08:10:49;;;;;;;8.55;5.18;;;;;;;30.58;94.27;100614.72;4985992;28;20411;-73
2023/06/23 08:13:14;;;;;;;8.27;5.95;;;;;;;30.94;94.13;100688.63;4980326;28;20081;-73
2023/06/23 08:15:41;;;;;;;6.30;4.18;;;;;;;31.08;96.82;100672.09;4985733;28;20026;-74
2023/06/23 08:18:07;;;;;;;10.13;6.95;;;;;;;30.97;94.44;100653.16;4984015;28;20031;-73
2023/06/23 08:20:32;;;;;;;10.75;5.22;;;;;;;30.43;80.31;100619.53;4986049;28;20047;-73
2023/06/23 08:22:58;;;;;;;9.43;5.60;;;;;;;29.83;78.75;100605.31;4983614;28;20038;-73
2023/06/23 08:25:23;;;;;;;5.65;4.70;;;;;;;30.42;84.51;100699.06;4985761;28;20050;-72
2023/06/23 08:27:49;;;;;;;5.63;4.20;;;;;;;31.22;82.30;100687.25;4979994;28;20041;-73
2023/06/23 08:30:15;;;;;;;9.27;4.68;;;;;;;31.50;80.18;100686.69;4986366;28;20037;-73
2023/06/23 08:32:42;;;;;;;5.50;3.80;;;;;;;31.02;68.10;100692.44;4977973;28;20109;-74
2023/06/23 08:35:08;;;;;;;6.45;4.15;;;;;;;30.88;70.44;100696.28;4986057;28;20050;-72
2023/06/23 08:37:34;;;;;;;4.93;3.97;;;;;;;31.30;73.63;100682.91;4985714;28;20053;-73
2023/06/23 08:39:59;;;;;;;5.05;3.72;;;;;;;31.51;69.31;100684.81;4984677;28;20070;-73
2023/06/23 08:42:25;;;;;;;7.30;4.97;;;;;;;31.13;68.04;100624.63;4980268;28;20034;-73
2023/06/23 08:44:55;;;;;;;7.88;5.50;;;;;;;31.12;73.98;100644.63;4985671;28;20042;-73
2023/06/23 08:47:22;;;;;;;6.63;4.22;;;;;;;31.20;70.95;100668.38;4977545;28;20097;-73
2023/06/23 08:49:49;;;;;;;6.47;4.72;;;;;;;30.68;70.43;100597.59;4983967;28;20049;-71
2023/06/23 08:52:17;;;;;;;6.97;5.50;;;;;;;31.64;68.76;100671.09;4982294;28;20487;-71
2023/06/23 08:54:42;;;;;;;9.35;6.15;;;;;;;32.31;72.59;100661.72;4983785;28;20027;-73
2023/06/23 08:57:08;;;;;;;9.27;5.80;;;;;;;32.50;68.27;100606.63;4984606;28;20057;-73
2023/06/23 08:59:34;;;;;;;6.30;5.15;;;;;;;32.92;66.80;100612.81;4982508;28;20041;-73
2023/06/23 09:01:59;;;;;;;8.70;6.38;;;;;;;33.40;66.95;100674.59;4981380;28;20124;-72
2023/06/23 09:04:24;;;;;;;7.97;5.30;;;;;;;32.66;61.17;100533.63;4983620;28;20052;-72
2023/06/23 09:06:50;;;;;;;8.30;6.60;;;;;;;31.46;61.99;100589.41;4985797;28;20816;-74
2023/06/23 09:09:18;;;;;;;9.45;5.65;;;;;;;31.65;69.07;100680.97;4977991;28;20034;-72
2023/06/23 09:11:44;;;;;;;7.13;4.97;;;;;;;31.11;76.71;100582.38;4985300;28;20084;-73
2023/06/23 09:14:10;;;;;;;8.02;6.13;;;;;;;31.48;67.60;100664.25;4985266;28;20038;-73
2023/06/23 09:16:37;;;;;;;10.68;5.90;;;;;;;32.13;67.76;100662.34;4983918;28;20049;-73
2023/06/23 09:19:05;;;;;;;5.57;4.70;;;;;;;32.31;62.98;100600.13;4985935;28;20406;-73
2023/06/23 09:21:33;;;;;;;10.10;5.78;;;;;;;32.87;59.17;100628.66;4990079;28;20038;-73
2023/06/23 09:24:04;;;;;;;7.38;5.90;;;;;;;33.47;54.67;100669.47;4986150;28;20478;-73
2023/06/23 09:26:42;;;;;;;11.85;4.80;;;;;;;31.22;58.15;100595.03;4984158;28;20699;-74
2023/06/23 09:29:24;;;;;;;7.38;5.13;;;;;;;32.63;58.73;100667.06;4989372;28;20062;-73
2023/06/23 09:31:53;;;;;;;8.05;5.05;;;;;;;32.21;56.08;100587.50;4983203;28;20046;-72
2023/06/23 09:34:21;;;;;;;5.47;4.20;;;;;;;33.79;54.92;100641.13;4982678;28;20119;-74
2023/06/23 09:36:47;;;;;;;5.40;4.05;;;;;;;34.43;55.85;100670.41;4989581;28;20490;-72
2023/06/23 09:39:14;;;;;;;6.60;4.57;;;;;;;33.80;53.86;100567.47;4986369;28;20041;-72
2023/06/23 09:41:46;;;;;;;5.63;4.75;;;;;;;34.54;53.83;100649.44;4988458;28;20066;-73
2023/06/23 09:44:12;;;;;;;4.43;3.40;;;;;;;33.90;52.01;100635.50;4987608;28;20053;-73
2023/06/23 09:46:38;;;;;;;8.60;4.82;;;;;;;34.59;54.02;100647.09;4988165;28;20128;-73
2023/06/23 09:49:06;;;;;;;7.95;6.20;;;;;;;33.64;51.79;100557.16;4988721;28;20050;-72
2023/06/23 09:51:36;;;;;;;6.68;5.32;;;;;;;34.50;51.90;100635.22;4986287;28;20038;-71
2023/06/23 09:54:02;;;;;;;7.75;5.18;;;;;;;34.15;49.54;100630.47;4988590;28;20031;-72
2023/06/23 09:56:27;;;;;;;8.10;4.18;;;;;;;33.35;50.33;100637.94;4987899;28;20073;-73
2023/06/23 09:58:53;;;;;;;6.28;4.43;;;;;;;31.96;51.93;100598.66;4988731;28;20039;-72
2023/06/23 10:01:20;;;;;;;6.03;4.30;;;;;;;32.37;49.51;100579.72;4987629;28;20038;-73
2023/06/23 10:03:46;;;;;;;7.80;4.93;;;;;;;32.23;49.79;100634.41;4988036;28;22254;-73
2023/06/23 10:06:34;;;;;;;5.07;3.85;;;;;;;32.78;49.92;100548.84;4987763;28;20030;-73
2023/06/23 10:09:03;;;;;;;12.23;4.38;;;;;;;33.98;49.10;100553.09;4986404;28;20049;-73
2023/06/23 10:11:34;;;;;;;6.32;4.68;;;;;;;34.06;49.49;100621.28;4987471;28;20505;-72
2023/06/23 10:14:04;;;;;;;6.43;4.65;;;;;;;32.82;49.46;100505.03;4986652;28;20621;-75
2023/06/23 10:16:30;;;;;;;12.07;5.13;;;;;;;32.71;48.68;100533.19;4985853;28;20721;-74
2023/06/23 10:18:56;;;;;;;6.68;4.63;;;;;;;32.62;49.66;100477.84;4983084;28;20046;-74
2023/06/23 10:21:23;;;;;;;4.82;4.32;;;;;;;32.42;52.00;100612.75;4986378;28;20474;-74
2023/06/23 10:23:49;;;;;;;9.13;4.57;;;;;;;33.24;50.50;100597.28;4986257;28;20042;-73
2023/06/23 10:26:17;;;;;;;5.03;4.22;;;;;;;34.82;49.27;100595.78;4984412;28;20196;-74
2023/06/23 10:28:46;;;;;;;6.78;5.40;;;;;;;35.58;48.54;100609.00;4969708;28;20046;-73
2023/06/23 10:31:14;;;;;;;5.35;3.95;;;;;;;34.77;47.93;100519.91;4984643;28;20129;-73
2023/06/23 10:33:40;;;;;;;5.70;4.60;;;;;;;35.43;48.79;100586.88;4986925;28;20058;-73
2023/06/23 10:36:08;;;;;;;4.82;4.28;;;;;;;34.53;47.64;100519.59;4987032;28;20424;-72
2023/06/23 10:38:40;;;;;;;11.00;5.22;;;;;;;35.42;46.04;100525.09;4986492;28;20131;-73
2023/06/23 10:41:07;;;;;;;7.10;4.80;;;;;;;35.71;47.32;100522.13;4983227;28;20046;-72
2023/06/23 10:43:35;;;;;;;5.70;4.70;;;;;;;34.67;48.64;100492.69;4983882;28;20050;-73
2023/06/23 10:46:03;;;;;;;7.28;4.55;;;;;;;33.18;50.17;100489.94;4979747;28;20133;-74
2023/06/23 10:48:30;;;;;;;7.70;4.97;;;;;;;33.55;53.79;100562.59;4969235;28;20058;-73
2023/06/23 10:50:59;;;;;;;7.90;4.70;;;;;;;34.74;49.68;100501.09;4987608;28;20050;-74
2023/06/23 10:53:32;;;;;;;8.93;5.57;;;;;;;35.56;48.86;100585.63;4984818;28;20502;-73
2023/06/23 10:55:58;;;;;;;5.85;5.28;;;;;;;34.42;47.63;100558.84;4986838;28;20062;-73
2023/06/23 10:58:25;;;;;;;6.25;4.75;;;;;;;34.13;48.25;100580.72;4986091;28;20145;-73
2023/06/23 11:01:01;;;;;;;5.40;4.55;;;;;;;34.71;49.54;100576.91;4986068;28;20042;-74
2023/06/23 11:03:28;;;;;;;6.65;4.93;;;;;;;33.64;48.85;100553.59;4986262;28;20392;-72
2023/06/23 11:06:01;;;;;;;6.20;3.72;;;;;;;34.41;50.39;100552.50;4987159;28;20034;-73
2023/06/23 11:08:35;;;;;;;9.02;4.45;;;;;;;32.82;49.18;100472.44;4983395;28;20047;-74
2023/06/23 11:11:06;;;;;;;5.43;3.90;;;;;;;34.59;49.88;100566.19;4987653;28;20054;-73
2023/06/23 11:13:48;;;;;;;7.93;4.70;;;;;;;33.86;49.35;100566.03;4985402;28;20118;-72
2023/06/23 11:16:26;;;;;;;6.47;4.97;;;;;;;32.53;51.26;100555.63;4969789;28;20097;-74
2023/06/23 11:18:58;;;;;;;7.40;4.25;;;;;;;31.70;54.55;100513.19;4968218;28;20102;-73
2023/06/23 11:21:27;;;;;;;4.83;4.17;;;;;;;32.15;58.71;100557.19;4970434;28;20030;-73